sensor_id;sensor_type;location;lat;lon;timestamp;P1;durP1;ratioP1;P2;durP2;ratioP2
5483;SDS011;2764;48.794;8.326;2023-02-15T00:00:13;113.38;;;41.60;;
5483;SDS011;2764;48.794;8.326;2023-02-15T00:01:15;142.20;;;43.72;;
5483;SDS011;2764;48.794;8.326;2023-02-15T00:02:17;139.20;;;44.20;;
5483;SDS011;2764;48.794;8.326;2023-02-15T00:03:21;133.15;;;42.65;;
5483;SDS011;2764;48.794;8.326;2023-02-15T00:04:24;186.13;;;44.80;;
5483;SDS011;2764;48.794;8.326;2023-02-15T00:05:48;140.07;;;43.83;;
5483;SDS011;2764;48.794;8.326;2023-02-15T00:06:51;165.48;;;44.92;;
5483;SDS011;2764;48.794;8.326;2023-02-15T00:07:53;153.40;;;43.85;;
5483;SDS011;2764;48.794;8.326;2023-02-15T00:08:56;121.57;;;43.28;;
5483;SDS011;2764;48.794;8.326;2023-02-15T00:09:58;143.68;;;44.55;;
5483;SDS011;2764;48.794;8.326;2023-02-15T00:11:07;191.52;;;47.70;;
5483;SDS011;2764;48.794;8.326;2023-02-15T00:12:11;149.00;;;45.70;;
5483;SDS011;2764;48.794;8.326;2023-02-15T00:13:13;126.72;;;42.45;;
5483;SDS011;2764;48.794;8.326;2023-02-15T00:14:17;156.27;;;47.33;;
5483;SDS011;2764;48.794;8.326;2023-02-15T00:15:21;183.25;;;48.53;;
5483;SDS011;2764;48.794;8.326;2023-02-15T00:16:22;208.48;;;48.83;;
5483;SDS011;2764;48.794;8.326;2023-02-15T00:17:27;176.90;;;47.42;;
5483;SDS011;2764;48.794;8.326;2023-02-15T00:18:30;162.27;;;46.78;;
5483;SDS011;2764;48.794;8.326;2023-02-15T00:19:32;154.35;;;47.45;;
5483;SDS011;2764;48.794;8.326;2023-02-15T00:20:34;163.02;;;47.25;;
5483;SDS011;2764;48.794;8.326;2023-02-15T00:21:37;171.23;;;47.25;;
5483;SDS011;2764;48.794;8.326;2023-02-15T00:22:40;165.23;;;46.25;;
5483;SDS011;2764;48.794;8.326;2023-02-15T00:23:43;198.18;;;49.17;;
5483;SDS011;2764;48.794;8.326;2023-02-15T00:24:45;198.80;;;47.65;;
5483;SDS011;2764;48.794;8.326;2023-02-15T00:25:49;150.45;;;46.25;;
5483;SDS011;2764;48.794;8.326;2023-02-15T00:26:52;136.25;;;45.90;;
5483;SDS011;2764;48.794;8.326;2023-02-15T00:27:56;157.55;;;47.00;;
5483;SDS011;2764;48.794;8.326;2023-02-15T00:28:58;128.95;;;43.47;;
5483;SDS011;2764;48.794;8.326;2023-02-15T00:30:00;146.63;;;46.22;;
5483;SDS011;2764;48.794;8.326;2023-02-15T00:31:09;130.15;;;44.80;;
5483;SDS011;2764;48.794;8.326;2023-02-15T00:32:13;141.77;;;46.45;;
5483;SDS011;2764;48.794;8.326;2023-02-15T00:33:15;156.43;;;46.60;;
5483;SDS011;2764;48.794;8.326;2023-02-15T00:34:18;112.95;;;44.30;;
5483;SDS011;2764;48.794;8.326;2023-02-15T00:35:21;130.45;;;45.42;;
5483;SDS011;2764;48.794;8.326;2023-02-15T00:36:23;122.35;;;44.28;;
5483;SDS011;2764;48.794;8.326;2023-02-15T00:37:26;132.05;;;42.78;;
5483;SDS011;2764;48.794;8.326;2023-02-15T00:38:28;120.28;;;45.13;;
5483;SDS011;2764;48.794;8.326;2023-02-15T00:39:31;114.32;;;43.63;;
5483;SDS011;2764;48.794;8.326;2023-02-15T00:40:33;161.98;;;47.97;;
5483;SDS011;2764;48.794;8.326;2023-02-15T00:41:35;91.13;;;40.33;;
5483;SDS011;2764;48.794;8.326;2023-02-15T00:42:37;145.73;;;46.38;;
5483;SDS011;2764;48.794;8.326;2023-02-15T00:43:39;153.48;;;47.80;;
5483;SDS011;2764;48.794;8.326;2023-02-15T00:44:41;156.43;;;46.05;;
5483;SDS011;2764;48.794;8.326;2023-02-15T00:45:44;151.52;;;47.22;;
5483;SDS011;2764;48.794;8.326;2023-02-15T00:46:47;195.15;;;51.05;;
5483;SDS011;2764;48.794;8.326;2023-02-15T00:47:49;179.45;;;47.20;;
5483;SDS011;2764;48.794;8.326;2023-02-15T00:48:51;122.72;;;43.88;;
5483;SDS011;2764;48.794;8.326;2023-02-15T00:49:53;170.07;;;48.00;;
5483;SDS011;2764;48.794;8.326;2023-02-15T00:50:55;136.57;;;45.00;;
5483;SDS011;2764;48.794;8.326;2023-02-15T00:52:00;148.43;;;47.38;;
5483;SDS011;2764;48.794;8.326;2023-02-15T00:53:02;150.02;;;46.25;;
5483;SDS011;2764;48.794;8.326;2023-02-15T00:54:06;180.90;;;45.90;;
5483;SDS011;2764;48.794;8.326;2023-02-15T00:55:08;135.95;;;43.58;;
5483;SDS011;2764;48.794;8.326;2023-02-15T00:56:11;202.07;;;45.50;;
5483;SDS011;2764;48.794;8.326;2023-02-15T00:57:13;118.40;;;42.92;;
5483;SDS011;2764;48.794;8.326;2023-02-15T00:58:15;159.13;;;46.58;;
5483;SDS011;2764;48.794;8.326;2023-02-15T00:59:17;144.77;;;44.92;;
5483;SDS011;2764;48.794;8.326;2023-02-15T01:00:20;144.38;;;43.72;;
5483;SDS011;2764;48.794;8.326;2023-02-15T01:01:22;220.30;;;46.58;;
5483;SDS011;2764;48.794;8.326;2023-02-15T01:02:25;114.10;;;41.70;;
5483;SDS011;2764;48.794;8.326;2023-02-15T01:03:27;161.40;;;46.40;;
5483;SDS011;2764;48.794;8.326;2023-02-15T01:04:29;136.43;;;44.30;;
5483;SDS011;2764;48.794;8.326;2023-02-15T01:05:31;170.38;;;45.60;;
5483;SDS011;2764;48.794;8.326;2023-02-15T01:06:34;135.05;;;42.85;;
5483;SDS011;2764;48.794;8.326;2023-02-15T01:07:36;129.57;;;43.55;;
5483;SDS011;2764;48.794;8.326;2023-02-15T01:08:38;134.40;;;41.17;;
5483;SDS011;2764;48.794;8.326;2023-02-15T01:09:40;130.60;;;41.85;;
5483;SDS011;2764;48.794;8.326;2023-02-15T01:10:42;117.95;;;40.33;;
5483;SDS011;2764;48.794;8.326;2023-02-15T01:11:45;126.68;;;40.30;;
5483;SDS011;2764;48.794;8.326;2023-02-15T01:12:47;136.85;;;39.33;;
5483;SDS011;2764;48.794;8.326;2023-02-15T01:13:49;125.15;;;39.60;;
5483;SDS011;2764;48.794;8.326;2023-02-15T01:14:53;131.27;;;40.80;;
5483;SDS011;2764;48.794;8.326;2023-02-15T01:15:55;126.25;;;40.10;;
5483;SDS011;2764;48.794;8.326;2023-02-15T01:16:58;164.88;;;43.17;;
5483;SDS011;2764;48.794;8.326;2023-02-15T01:18:01;127.55;;;40.78;;
5483;SDS011;2764;48.794;8.326;2023-02-15T01:19:03;169.32;;;41.97;;
5483;SDS011;2764;48.794;8.326;2023-02-15T01:20:06;181.57;;;42.83;;
5483;SDS011;2764;48.794;8.326;2023-02-15T01:21:12;123.68;;;40.40;;
5483;SDS011;2764;48.794;8.326;2023-02-15T01:22:18;156.63;;;40.80;;
5483;SDS011;2764;48.794;8.326;2023-02-15T01:23:20;103.28;;;38.65;;
5483;SDS011;2764;48.794;8.326;2023-02-15T01:24:23;135.80;;;43.40;;
5483;SDS011;2764;48.794;8.326;2023-02-15T01:25:25;117.20;;;40.63;;
5483;SDS011;2764;48.794;8.326;2023-02-15T01:26:27;138.75;;;41.03;;
5483;SDS011;2764;48.794;8.326;2023-02-15T01:27:29;94.38;;;35.78;;
5483;SDS011;2764;48.794;8.326;2023-02-15T01:28:35;134.93;;;39.45;;
5483;SDS011;2764;48.794;8.326;2023-02-15T01:29:37;106.13;;;36.95;;
5483;SDS011;2764;48.794;8.326;2023-02-15T01:30:39;85.13;;;34.45;;
5483;SDS011;2764;48.794;8.326;2023-02-15T01:31:41;126.10;;;40.00;;
5483;SDS011;2764;48.794;8.326;2023-02-15T01:32:43;104.22;;;38.97;;
5483;SDS011;2764;48.794;8.326;2023-02-15T01:33:46;133.18;;;39.90;;
5483;SDS011;2764;48.794;8.326;2023-02-15T01:34:48;141.80;;;38.42;;
5483;SDS011;2764;48.794;8.326;2023-02-15T01:35:57;117.20;;;35.40;;
5483;SDS011;2764;48.794;8.326;2023-02-15T01:37:02;110.70;;;35.67;;
5483;SDS011;2764;48.794;8.326;2023-02-15T01:38:05;111.28;;;36.92;;
5483;SDS011;2764;48.794;8.326;2023-02-15T01:39:06;97.55;;;37.53;;
5483;SDS011;2764;48.794;8.326;2023-02-15T01:40:12;111.32;;;37.20;;
5483;SDS011;2764;48.794;8.326;2023-02-15T01:41:16;110.97;;;38.60;;
5483;SDS011;2764;48.794;8.326;2023-02-15T01:42:29;136.20;;;38.70;;
5483;SDS011;2764;48.794;8.326;2023-02-15T01:43:41;133.65;;;39.53;;
5483;SDS011;2764;48.794;8.326;2023-02-15T01:44:52;120.20;;;38.90;;
5483;SDS011;2764;48.794;8.326;2023-02-15T01:46:37;137.90;;;40.35;;
5483;SDS011;2764;48.794;8.326;2023-02-15T01:47:45;146.13;;;40.53;;
5483;SDS011;2764;48.794;8.326;2023-02-15T01:48:54;103.53;;;36.88;;
5483;SDS011;2764;48.794;8.326;2023-02-15T01:50:06;106.68;;;38.33;;
5483;SDS011;2764;48.794;8.326;2023-02-15T01:51:14;127.53;;;36.63;;
5483;SDS011;2764;48.794;8.326;2023-02-15T01:52:20;109.28;;;36.65;;
5483;SDS011;2764;48.794;8.326;2023-02-15T01:53:25;157.02;;;38.60;;
5483;SDS011;2764;48.794;8.326;2023-02-15T01:54:34;114.38;;;36.67;;
5483;SDS011;2764;48.794;8.326;2023-02-15T01:55:43;119.68;;;35.75;;
5483;SDS011;2764;48.794;8.326;2023-02-15T01:56:50;136.77;;;38.40;;
5483;SDS011;2764;48.794;8.326;2023-02-15T01:57:52;218.90;;;42.55;;
5483;SDS011;2764;48.794;8.326;2023-02-15T01:58:55;199.68;;;43.50;;
5483;SDS011;2764;48.794;8.326;2023-02-15T02:00:01;174.13;;;41.60;;
5483;SDS011;2764;48.794;8.326;2023-02-15T02:01:07;118.45;;;38.50;;
5483;SDS011;2764;48.794;8.326;2023-02-15T02:02:11;137.60;;;40.40;;
5483;SDS011;2764;48.794;8.326;2023-02-15T02:03:16;88.43;;;35.58;;
5483;SDS011;2764;48.794;8.326;2023-02-15T02:05:30;97.80;;;36.63;;
5483;SDS011;2764;48.794;8.326;2023-02-15T02:06:34;73.95;;;32.17;;
5483;SDS011;2764;48.794;8.326;2023-02-15T02:07:40;128.52;;;37.58;;
5483;SDS011;2764;48.794;8.326;2023-02-15T02:08:45;171.98;;;38.70;;
5483;SDS011;2764;48.794;8.326;2023-02-15T02:09:48;98.63;;;34.85;;
5483;SDS011;2764;48.794;8.326;2023-02-15T02:10:50;113.72;;;36.10;;
5483;SDS011;2764;48.794;8.326;2023-02-15T02:11:52;95.25;;;34.75;;
5483;SDS011;2764;48.794;8.326;2023-02-15T02:12:57;78.50;;;33.17;;
5483;SDS011;2764;48.794;8.326;2023-02-15T02:14:03;78.65;;;32.22;;
5483;SDS011;2764;48.794;8.326;2023-02-15T02:15:05;82.75;;;34.00;;
5483;SDS011;2764;48.794;8.326;2023-02-15T02:16:14;77.82;;;33.45;;
5483;SDS011;2764;48.794;8.326;2023-02-15T02:17:35;70.63;;;32.75;;
5483;SDS011;2764;48.794;8.326;2023-02-15T02:33:07;76.35;;;29.83;;
5483;SDS011;2764;48.794;8.326;2023-02-15T02:34:29;134.75;;;32.35;;
5483;SDS011;2764;48.794;8.326;2023-02-15T02:35:44;84.30;;;31.63;;
5483;SDS011;2764;48.794;8.326;2023-02-15T02:36:55;92.75;;;32.13;;
5483;SDS011;2764;48.794;8.326;2023-02-15T02:38:09;84.05;;;31.55;;
5483;SDS011;2764;48.794;8.326;2023-02-15T02:43:18;87.70;;;33.13;;
5483;SDS011;2764;48.794;8.326;2023-02-15T02:44:24;122.57;;;33.45;;
5483;SDS011;2764;48.794;8.326;2023-02-15T02:45:51;125.65;;;34.50;;
5483;SDS011;2764;48.794;8.326;2023-02-15T02:47:10;104.10;;;33.95;;
5483;SDS011;2764;48.794;8.326;2023-02-15T02:48:17;112.00;;;35.65;;
5483;SDS011;2764;48.794;8.326;2023-02-15T02:49:31;110.80;;;35.38;;
5483;SDS011;2764;48.794;8.326;2023-02-15T02:50:38;109.72;;;35.05;;
5483;SDS011;2764;48.794;8.326;2023-02-15T02:51:41;96.35;;;34.00;;
5483;SDS011;2764;48.794;8.326;2023-02-15T02:52:50;135.07;;;33.65;;
5483;SDS011;2764;48.794;8.326;2023-02-15T02:53:54;126.63;;;35.00;;
5483;SDS011;2764;48.794;8.326;2023-02-15T02:55:28;99.45;;;33.08;;
5483;SDS011;2764;48.794;8.326;2023-02-15T02:56:37;100.00;;;32.80;;
5483;SDS011;2764;48.794;8.326;2023-02-15T02:59:17;100.13;;;34.53;;
5483;SDS011;2764;48.794;8.326;2023-02-15T03:00:23;120.20;;;34.05;;
5483;SDS011;2764;48.794;8.326;2023-02-15T03:01:35;141.73;;;33.85;;
5483;SDS011;2764;48.794;8.326;2023-02-15T03:02:43;87.30;;;33.10;;
5483;SDS011;2764;48.794;8.326;2023-02-15T03:03:59;94.60;;;33.47;;
5483;SDS011;2764;48.794;8.326;2023-02-15T03:05:11;102.60;;;34.25;;
5483;SDS011;2764;48.794;8.326;2023-02-15T03:06:28;116.75;;;33.88;;
5483;SDS011;2764;48.794;8.326;2023-02-15T03:07:43;78.90;;;31.25;;
5483;SDS011;2764;48.794;8.326;2023-02-15T03:09:16;81.68;;;32.28;;
5483;SDS011;2764;48.794;8.326;2023-02-15T03:10:18;94.60;;;32.55;;
5483;SDS011;2764;48.794;8.326;2023-02-15T03:11:23;79.40;;;30.63;;
5483;SDS011;2764;48.794;8.326;2023-02-15T03:12:29;85.68;;;32.20;;
5483;SDS011;2764;48.794;8.326;2023-02-15T03:13:34;115.55;;;33.47;;
5483;SDS011;2764;48.794;8.326;2023-02-15T03:14:37;88.88;;;32.88;;
5483;SDS011;2764;48.794;8.326;2023-02-15T03:15:40;85.75;;;32.70;;
5483;SDS011;2764;48.794;8.326;2023-02-15T03:17:04;82.25;;;32.28;;
5483;SDS011;2764;48.794;8.326;2023-02-15T03:18:09;106.07;;;33.70;;
5483;SDS011;2764;48.794;8.326;2023-02-15T03:19:13;113.32;;;33.53;;
5483;SDS011;2764;48.794;8.326;2023-02-15T03:20:40;120.20;;;32.53;;
5483;SDS011;2764;48.794;8.326;2023-02-15T03:23:06;77.78;;;30.45;;
5483;SDS011;2764;48.794;8.326;2023-02-15T03:24:14;108.57;;;31.98;;
5483;SDS011;2764;48.794;8.326;2023-02-15T03:25:31;80.10;;;31.52;;
5483;SDS011;2764;48.794;8.326;2023-02-15T03:26:36;70.55;;;29.95;;
5483;SDS011;2764;48.794;8.326;2023-02-15T03:27:40;64.15;;;28.83;;
5483;SDS011;2764;48.794;8.326;2023-02-15T03:28:46;76.07;;;30.58;;
5483;SDS011;2764;48.794;8.326;2023-02-15T03:29:55;73.72;;;29.70;;
5483;SDS011;2764;48.794;8.326;2023-02-15T03:31:00;61.30;;;28.50;;
5483;SDS011;2764;48.794;8.326;2023-02-15T03:32:05;62.10;;;27.63;;
5483;SDS011;2764;48.794;8.326;2023-02-15T03:33:12;55.30;;;26.10;;
5483;SDS011;2764;48.794;8.326;2023-02-15T03:34:16;52.90;;;26.55;;
5483;SDS011;2764;48.794;8.326;2023-02-15T03:35:20;53.15;;;26.58;;
5483;SDS011;2764;48.794;8.326;2023-02-15T03:36:31;55.03;;;26.40;;
5483;SDS011;2764;48.794;8.326;2023-02-15T03:37:47;53.63;;;26.83;;
5483;SDS011;2764;48.794;8.326;2023-02-15T03:38:53;65.45;;;26.60;;
5483;SDS011;2764;48.794;8.326;2023-02-15T03:40:11;67.45;;;26.30;;
5483;SDS011;2764;48.794;8.326;2023-02-15T03:41:41;48.92;;;25.20;;
5483;SDS011;2764;48.794;8.326;2023-02-15T03:42:51;48.63;;;24.50;;
5483;SDS011;2764;48.794;8.326;2023-02-15T03:44:28;89.18;;;25.77;;
5483;SDS011;2764;48.794;8.326;2023-02-15T03:45:32;73.97;;;26.83;;
5483;SDS011;2764;48.794;8.326;2023-02-15T03:46:52;47.40;;;24.85;;
5483;SDS011;2764;48.794;8.326;2023-02-15T03:48:00;60.55;;;27.25;;
5483;SDS011;2764;48.794;8.326;2023-02-15T03:49:08;77.95;;;28.30;;
5483;SDS011;2764;48.794;8.326;2023-02-15T03:51:56;57.40;;;26.50;;
5483;SDS011;2764;48.794;8.326;2023-02-15T03:53:01;52.85;;;28.38;;
5483;SDS011;2764;48.794;8.326;2023-02-15T03:54:09;56.53;;;25.30;;
5483;SDS011;2764;48.794;8.326;2023-02-15T03:55:14;52.10;;;25.67;;
5483;SDS011;2764;48.794;8.326;2023-02-15T03:56:16;55.67;;;26.13;;
5483;SDS011;2764;48.794;8.326;2023-02-15T03:57:20;45.83;;;23.70;;
5483;SDS011;2764;48.794;8.326;2023-02-15T03:58:48;48.80;;;25.27;;
5483;SDS011;2764;48.794;8.326;2023-02-15T04:02:27;52.72;;;26.58;;
5483;SDS011;2764;48.794;8.326;2023-02-15T04:03:32;61.85;;;26.02;;
5483;SDS011;2764;48.794;8.326;2023-02-15T04:04:41;57.40;;;26.35;;
5483;SDS011;2764;48.794;8.326;2023-02-15T04:05:47;65.47;;;26.63;;
5483;SDS011;2764;48.794;8.326;2023-02-15T04:06:49;57.88;;;27.52;;
5483;SDS011;2764;48.794;8.326;2023-02-15T04:07:51;59.58;;;26.05;;
5483;SDS011;2764;48.794;8.326;2023-02-15T04:08:53;66.15;;;25.85;;
5483;SDS011;2764;48.794;8.326;2023-02-15T04:10:13;83.00;;;29.42;;
5483;SDS011;2764;48.794;8.326;2023-02-15T04:11:34;59.88;;;27.70;;
5483;SDS011;2764;48.794;8.326;2023-02-15T04:12:36;63.53;;;27.35;;
5483;SDS011;2764;48.794;8.326;2023-02-15T04:13:38;77.65;;;30.35;;
5483;SDS011;2764;48.794;8.326;2023-02-15T04:14:41;70.60;;;30.08;;
5483;SDS011;2764;48.794;8.326;2023-02-15T04:16:03;78.45;;;29.58;;
5483;SDS011;2764;48.794;8.326;2023-02-15T04:17:06;71.93;;;27.15;;
5483;SDS011;2764;48.794;8.326;2023-02-15T04:18:09;113.25;;;30.55;;
5483;SDS011;2764;48.794;8.326;2023-02-15T04:19:11;66.90;;;29.45;;
5483;SDS011;2764;48.794;8.326;2023-02-15T04:20:32;66.05;;;28.38;;
5483;SDS011;2764;48.794;8.326;2023-02-15T04:21:52;110.20;;;29.67;;
5483;SDS011;2764;48.794;8.326;2023-02-15T04:23:13;67.07;;;28.90;;
5483;SDS011;2764;48.794;8.326;2023-02-15T04:24:34;88.03;;;29.65;;
5483;SDS011;2764;48.794;8.326;2023-02-15T04:25:55;63.60;;;28.67;;
5483;SDS011;2764;48.794;8.326;2023-02-15T04:26:57;66.10;;;28.92;;
5483;SDS011;2764;48.794;8.326;2023-02-15T04:28:02;58.13;;;27.45;;
5483;SDS011;2764;48.794;8.326;2023-02-15T04:29:04;66.47;;;29.85;;
5483;SDS011;2764;48.794;8.326;2023-02-15T04:30:06;63.50;;;28.83;;
5483;SDS011;2764;48.794;8.326;2023-02-15T04:31:12;59.17;;;28.65;;
5483;SDS011;2764;48.794;8.326;2023-02-15T04:32:14;71.93;;;29.05;;
5483;SDS011;2764;48.794;8.326;2023-02-15T04:33:16;68.78;;;29.55;;
5483;SDS011;2764;48.794;8.326;2023-02-15T04:34:21;75.25;;;30.02;;
5483;SDS011;2764;48.794;8.326;2023-02-15T04:35:23;72.47;;;32.25;;
5483;SDS011;2764;48.794;8.326;2023-02-15T04:36:27;59.83;;;28.52;;
5483;SDS011;2764;48.794;8.326;2023-02-15T04:37:30;67.20;;;28.75;;
5483;SDS011;2764;48.794;8.326;2023-02-15T04:38:33;58.50;;;29.13;;
5483;SDS011;2764;48.794;8.326;2023-02-15T04:39:35;59.35;;;28.05;;
5483;SDS011;2764;48.794;8.326;2023-02-15T04:40:37;49.95;;;26.80;;
5483;SDS011;2764;48.794;8.326;2023-02-15T04:41:39;76.63;;;30.90;;
5483;SDS011;2764;48.794;8.326;2023-02-15T04:42:41;80.53;;;32.78;;
5483;SDS011;2764;48.794;8.326;2023-02-15T04:43:45;81.28;;;32.00;;
5483;SDS011;2764;48.794;8.326;2023-02-15T04:44:47;61.05;;;27.23;;
5483;SDS011;2764;48.794;8.326;2023-02-15T04:45:49;62.55;;;29.13;;
5483;SDS011;2764;48.794;8.326;2023-02-15T04:46:55;76.25;;;30.50;;
5483;SDS011;2764;48.794;8.326;2023-02-15T04:47:58;93.13;;;30.63;;
5483;SDS011;2764;48.794;8.326;2023-02-15T04:48:59;51.40;;;26.38;;
5483;SDS011;2764;48.794;8.326;2023-02-15T04:50:03;57.90;;;27.50;;
5483;SDS011;2764;48.794;8.326;2023-02-15T04:51:06;74.38;;;30.42;;
5483;SDS011;2764;48.794;8.326;2023-02-15T04:52:08;74.03;;;27.40;;
5483;SDS011;2764;48.794;8.326;2023-02-15T04:53:12;62.20;;;28.50;;
5483;SDS011;2764;48.794;8.326;2023-02-15T04:54:14;59.17;;;28.25;;
5483;SDS011;2764;48.794;8.326;2023-02-15T04:55:17;56.80;;;28.55;;
5483;SDS011;2764;48.794;8.326;2023-02-15T04:56:19;60.38;;;28.10;;
5483;SDS011;2764;48.794;8.326;2023-02-15T04:57:22;71.13;;;28.80;;
5483;SDS011;2764;48.794;8.326;2023-02-15T04:58:24;59.67;;;26.58;;
5483;SDS011;2764;48.794;8.326;2023-02-15T04:59:26;83.20;;;32.13;;
5483;SDS011;2764;48.794;8.326;2023-02-15T05:00:28;79.40;;;35.95;;
5483;SDS011;2764;48.794;8.326;2023-02-15T05:01:30;65.95;;;34.22;;
5483;SDS011;2764;48.794;8.326;2023-02-15T05:02:32;86.97;;;38.35;;
5483;SDS011;2764;48.794;8.326;2023-02-15T05:03:34;75.97;;;31.88;;
5483;SDS011;2764;48.794;8.326;2023-02-15T05:04:36;74.00;;;29.10;;
5483;SDS011;2764;48.794;8.326;2023-02-15T05:05:37;68.75;;;30.17;;
5483;SDS011;2764;48.794;8.326;2023-02-15T05:06:41;49.97;;;27.23;;
5483;SDS011;2764;48.794;8.326;2023-02-15T05:07:44;52.75;;;26.95;;
5483;SDS011;2764;48.794;8.326;2023-02-15T05:08:46;54.83;;;26.38;;
5483;SDS011;2764;48.794;8.326;2023-02-15T05:09:47;60.30;;;28.65;;
5483;SDS011;2764;48.794;8.326;2023-02-15T05:10:49;58.70;;;28.33;;
5483;SDS011;2764;48.794;8.326;2023-02-15T05:11:51;74.03;;;30.98;;
5483;SDS011;2764;48.794;8.326;2023-02-15T05:12:54;66.80;;;29.75;;
5483;SDS011;2764;48.794;8.326;2023-02-15T05:13:55;67.35;;;30.98;;
5483;SDS011;2764;48.794;8.326;2023-02-15T05:14:57;70.95;;;29.23;;
5483;SDS011;2764;48.794;8.326;2023-02-15T05:15:59;61.35;;;27.23;;
5483;SDS011;2764;48.794;8.326;2023-02-15T05:17:01;94.75;;;38.03;;
5483;SDS011;2764;48.794;8.326;2023-02-15T05:18:04;75.72;;;34.67;;
5483;SDS011;2764;48.794;8.326;2023-02-15T05:19:07;72.32;;;34.30;;
5483;SDS011;2764;48.794;8.326;2023-02-15T05:20:09;70.93;;;30.40;;
5483;SDS011;2764;48.794;8.326;2023-02-15T05:21:11;72.03;;;30.88;;
5483;SDS011;2764;48.794;8.326;2023-02-15T05:22:15;54.58;;;27.88;;
5483;SDS011;2764;48.794;8.326;2023-02-15T05:23:16;69.82;;;34.17;;
5483;SDS011;2764;48.794;8.326;2023-02-15T05:24:18;73.20;;;33.67;;
5483;SDS011;2764;48.794;8.326;2023-02-15T05:25:38;65.28;;;28.23;;
5483;SDS011;2764;48.794;8.326;2023-02-15T05:27:01;68.22;;;27.20;;
5483;SDS011;2764;48.794;8.326;2023-02-15T05:28:21;62.70;;;27.60;;
5483;SDS011;2764;48.794;8.326;2023-02-15T05:29:25;55.70;;;27.65;;
5483;SDS011;2764;48.794;8.326;2023-02-15T05:30:28;57.17;;;25.65;;
5483;SDS011;2764;48.794;8.326;2023-02-15T05:31:32;52.35;;;28.42;;
5483;SDS011;2764;48.794;8.326;2023-02-15T05:32:36;55.67;;;29.17;;
5483;SDS011;2764;48.794;8.326;2023-02-15T05:33:38;44.70;;;25.30;;
5483;SDS011;2764;48.794;8.326;2023-02-15T05:34:41;47.30;;;25.25;;
5483;SDS011;2764;48.794;8.326;2023-02-15T05:35:43;44.22;;;24.02;;
5483;SDS011;2764;48.794;8.326;2023-02-15T05:36:45;43.47;;;23.88;;
5483;SDS011;2764;48.794;8.326;2023-02-15T05:37:47;44.28;;;23.38;;
5483;SDS011;2764;48.794;8.326;2023-02-15T05:38:50;41.65;;;23.60;;
5483;SDS011;2764;48.794;8.326;2023-02-15T05:39:52;42.60;;;22.45;;
5483;SDS011;2764;48.794;8.326;2023-02-15T05:40:54;40.92;;;22.50;;
5483;SDS011;2764;48.794;8.326;2023-02-15T05:41:59;40.42;;;21.70;;
5483;SDS011;2764;48.794;8.326;2023-02-15T05:43:02;40.45;;;22.23;;
5483;SDS011;2764;48.794;8.326;2023-02-15T05:44:04;36.65;;;20.98;;
5483;SDS011;2764;48.794;8.326;2023-02-15T05:45:06;45.03;;;24.40;;
5483;SDS011;2764;48.794;8.326;2023-02-15T05:46:08;47.25;;;24.38;;
5483;SDS011;2764;48.794;8.326;2023-02-15T05:47:10;48.08;;;23.60;;
5483;SDS011;2764;48.794;8.326;2023-02-15T05:48:12;40.47;;;23.40;;
5483;SDS011;2764;48.794;8.326;2023-02-15T05:49:14;45.13;;;23.90;;
5483;SDS011;2764;48.794;8.326;2023-02-15T05:50:16;45.05;;;24.00;;
5483;SDS011;2764;48.794;8.326;2023-02-15T05:51:18;44.80;;;24.15;;
5483;SDS011;2764;48.794;8.326;2023-02-15T05:52:19;42.00;;;25.05;;
5483;SDS011;2764;48.794;8.326;2023-02-15T05:53:22;44.92;;;25.55;;
5483;SDS011;2764;48.794;8.326;2023-02-15T05:54:25;44.25;;;26.17;;
5483;SDS011;2764;48.794;8.326;2023-02-15T05:55:28;41.85;;;24.02;;
5483;SDS011;2764;48.794;8.326;2023-02-15T05:56:30;42.85;;;24.05;;
5483;SDS011;2764;48.794;8.326;2023-02-15T05:57:32;40.42;;;22.80;;
5483;SDS011;2764;48.794;8.326;2023-02-15T05:58:35;50.90;;;28.25;;
5483;SDS011;2764;48.794;8.326;2023-02-15T05:59:38;47.35;;;27.65;;
5483;SDS011;2764;48.794;8.326;2023-02-15T06:00:40;46.38;;;23.45;;
5483;SDS011;2764;48.794;8.326;2023-02-15T06:01:42;40.88;;;25.30;;
5483;SDS011;2764;48.794;8.326;2023-02-15T06:02:45;40.67;;;24.65;;
5483;SDS011;2764;48.794;8.326;2023-02-15T06:03:47;41.75;;;23.60;;
5483;SDS011;2764;48.794;8.326;2023-02-15T06:04:49;46.25;;;24.20;;
5483;SDS011;2764;48.794;8.326;2023-02-15T06:05:51;42.63;;;23.17;;
5483;SDS011;2764;48.794;8.326;2023-02-15T06:06:53;66.47;;;24.80;;
5483;SDS011;2764;48.794;8.326;2023-02-15T06:07:55;38.97;;;22.98;;
5483;SDS011;2764;48.794;8.326;2023-02-15T06:08:57;38.92;;;22.73;;
5483;SDS011;2764;48.794;8.326;2023-02-15T06:10:00;41.85;;;24.58;;
5483;SDS011;2764;48.794;8.326;2023-02-15T06:11:02;37.67;;;22.35;;
5483;SDS011;2764;48.794;8.326;2023-02-15T06:12:05;41.97;;;24.15;;
5483;SDS011;2764;48.794;8.326;2023-02-15T06:13:09;43.70;;;25.13;;
5483;SDS011;2764;48.794;8.326;2023-02-15T06:14:12;38.42;;;23.50;;
5483;SDS011;2764;48.794;8.326;2023-02-15T06:15:14;44.75;;;25.00;;
5483;SDS011;2764;48.794;8.326;2023-02-15T06:16:16;40.78;;;22.55;;
5483;SDS011;2764;48.794;8.326;2023-02-15T06:17:18;37.90;;;22.30;;
5483;SDS011;2764;48.794;8.326;2023-02-15T06:18:20;40.90;;;22.80;;
5483;SDS011;2764;48.794;8.326;2023-02-15T06:19:22;37.45;;;22.23;;
5483;SDS011;2764;48.794;8.326;2023-02-15T06:20:24;38.75;;;23.10;;
5483;SDS011;2764;48.794;8.326;2023-02-15T06:21:26;43.47;;;24.05;;
5483;SDS011;2764;48.794;8.326;2023-02-15T06:22:28;38.03;;;23.65;;
5483;SDS011;2764;48.794;8.326;2023-02-15T06:23:30;41.20;;;23.38;;
5483;SDS011;2764;48.794;8.326;2023-02-15T06:24:32;53.38;;;25.02;;
5483;SDS011;2764;48.794;8.326;2023-02-15T06:25:34;49.38;;;25.42;;
5483;SDS011;2764;48.794;8.326;2023-02-15T06:26:40;48.97;;;26.75;;
5483;SDS011;2764;48.794;8.326;2023-02-15T06:27:42;52.03;;;27.02;;
5483;SDS011;2764;48.794;8.326;2023-02-15T06:28:44;45.72;;;25.73;;
5483;SDS011;2764;48.794;8.326;2023-02-15T06:29:46;52.58;;;25.27;;
5483;SDS011;2764;48.794;8.326;2023-02-15T06:30:48;43.75;;;24.23;;
5483;SDS011;2764;48.794;8.326;2023-02-15T06:31:49;47.55;;;25.02;;
5483;SDS011;2764;48.794;8.326;2023-02-15T06:32:51;51.53;;;26.45;;
5483;SDS011;2764;48.794;8.326;2023-02-15T06:33:54;41.15;;;23.73;;
5483;SDS011;2764;48.794;8.326;2023-02-15T06:35:02;47.22;;;26.30;;
5483;SDS011;2764;48.794;8.326;2023-02-15T06:36:04;52.67;;;27.88;;
5483;SDS011;2764;48.794;8.326;2023-02-15T06:37:06;48.50;;;26.67;;
5483;SDS011;2764;48.794;8.326;2023-02-15T06:38:09;56.78;;;26.10;;
5483;SDS011;2764;48.794;8.326;2023-02-15T06:39:11;60.58;;;26.80;;
5483;SDS011;2764;48.794;8.326;2023-02-15T06:40:14;44.90;;;25.50;;
5483;SDS011;2764;48.794;8.326;2023-02-15T06:41:16;43.78;;;24.20;;
5483;SDS011;2764;48.794;8.326;2023-02-15T06:42:18;47.30;;;24.15;;
5483;SDS011;2764;48.794;8.326;2023-02-15T06:43:22;48.83;;;24.85;;
5483;SDS011;2764;48.794;8.326;2023-02-15T06:44:24;46.40;;;24.60;;
5483;SDS011;2764;48.794;8.326;2023-02-15T06:45:26;45.30;;;24.35;;
5483;SDS011;2764;48.794;8.326;2023-02-15T06:46:28;40.85;;;23.63;;
5483;SDS011;2764;48.794;8.326;2023-02-15T06:47:30;43.85;;;23.45;;
5483;SDS011;2764;48.794;8.326;2023-02-15T06:48:32;48.80;;;25.98;;
5483;SDS011;2764;48.794;8.326;2023-02-15T06:49:34;41.22;;;24.25;;
5483;SDS011;2764;48.794;8.326;2023-02-15T06:50:36;48.20;;;25.80;;
5483;SDS011;2764;48.794;8.326;2023-02-15T06:51:39;53.17;;;25.08;;
5483;SDS011;2764;48.794;8.326;2023-02-15T06:52:42;50.50;;;25.17;;
5483;SDS011;2764;48.794;8.326;2023-02-15T06:53:44;47.40;;;24.48;;
5483;SDS011;2764;48.794;8.326;2023-02-15T06:54:47;44.30;;;24.10;;
5483;SDS011;2764;48.794;8.326;2023-02-15T06:55:49;42.78;;;23.88;;
5483;SDS011;2764;48.794;8.326;2023-02-15T06:56:51;47.50;;;25.88;;
5483;SDS011;2764;48.794;8.326;2023-02-15T06:57:56;49.58;;;25.23;;